createdAt,value
2018-03-27T00:01:34.146Z,4.50
2018-03-27T00:04:00.278Z,4.50
2018-03-27T00:06:26.391Z,4.60
2018-03-27T00:08:53.267Z,4.70
2018-03-27T00:11:19.411Z,4.70
2018-03-27T00:13:45.610Z,4.80
2018-03-27T00:16:14.661Z,4.90
2018-03-27T00:18:41.631Z,4.90
2018-03-27T00:21:07.790Z,4.90
2018-03-27T00:23:33.894Z,4.80
2018-03-27T00:26:00.044Z,4.70
2018-03-27T00:28:38.365Z,4.70
2018-03-27T00:31:16.736Z,4.60
2018-03-27T00:33:55.030Z,4.70
2018-03-27T00:36:33.520Z,4.70
2018-03-27T00:39:11.706Z,4.60
2018-03-27T00:44:57.587Z,4.60
2018-03-27T00:47:23.715Z,4.50
2018-03-27T00:49:50.386Z,4.40
2018-03-27T00:52:16.654Z,4.40
2018-03-27T00:54:42.761Z,4.30
2018-03-27T00:57:08.870Z,4.30
2018-03-27T00:59:35.759Z,4.20
2018-03-27T01:02:01.881Z,4.20
2018-03-27T01:04:28.731Z,4.10
2018-03-27T01:06:55.645Z,4.10
2018-03-27T01:09:21.796Z,4.10
2018-03-27T01:11:48.588Z,4.00
2018-03-27T01:14:14.821Z,3.90
2018-03-27T01:16:43.284Z,3.70
2018-03-27T01:19:09.551Z,3.70
2018-03-27T01:21:35.755Z,3.70
2018-03-27T01:24:02.003Z,3.60
2018-03-27T01:26:28.141Z,3.60
2018-03-27T01:28:54.228Z,3.70
2018-03-27T01:31:20.330Z,3.60
2018-03-27T01:33:46.486Z,3.60
2018-03-27T01:36:13.342Z,3.50
2018-03-27T01:38:42.093Z,3.40
2018-03-27T01:41:09.597Z,3.40
2018-03-27T01:43:35.918Z,3.30
2018-03-27T01:46:02.068Z,3.30
2018-03-27T01:48:28.205Z,3.20
2018-03-27T01:50:54.323Z,3.20
2018-03-27T01:53:20.466Z,3.20
2018-03-27T01:55:46.643Z,3.10
2018-03-27T01:58:12.784Z,3.10
2018-03-27T02:00:38.925Z,3.10
2018-03-27T02:03:05.054Z,3.00
2018-03-27T02:05:31.210Z,3.00
2018-03-27T02:07:58.057Z,2.80
2018-03-27T02:10:24.927Z,2.80
2018-03-27T02:12:57.251Z,2.80
2018-03-27T02:15:30.856Z,2.70
2018-03-27T02:18:03.171Z,2.70
2018-03-27T02:20:35.439Z,2.70
2018-03-27T02:23:02.528Z,2.70
2018-03-27T02:25:28.646Z,2.70
2018-03-27T02:27:54.751Z,2.60
2018-03-27T02:30:20.881Z,2.60
2018-03-27T02:32:47.027Z,2.50
2018-03-27T02:35:13.185Z,2.50
2018-03-27T02:37:39.381Z,2.50
2018-03-27T02:40:06.248Z,2.40
2018-03-27T02:42:33.080Z,2.40
2018-03-27T02:44:59.232Z,2.40
2018-03-27T02:47:25.369Z,2.40
2018-03-27T02:49:52.225Z,2.30
2018-03-27T02:52:19.086Z,2.20
2018-03-27T02:54:45.227Z,2.20
2018-03-27T02:57:15.118Z,2.10
2018-03-27T02:59:41.271Z,2.00
2018-03-27T03:02:10.419Z,2.00
2018-03-27T03:04:36.680Z,2.00
2018-03-27T03:07:02.825Z,2.00
2018-03-27T03:09:28.936Z,2.00
2018-03-27T03:11:55.074Z,1.90
2018-03-27T03:14:21.211Z,1.90
2018-03-27T03:16:47.362Z,1.90
2018-03-27T03:19:13.494Z,1.80
2018-03-27T03:21:39.698Z,1.80
2018-03-27T03:24:07.189Z,1.90
2018-03-27T03:26:33.482Z,1.80
2018-03-27T03:28:59.602Z,1.80
2018-03-27T03:31:25.717Z,1.70
2018-03-27T03:33:51.854Z,1.70
2018-03-27T03:36:18.675Z,1.70
2018-03-27T03:38:44.810Z,1.70
2018-03-27T03:41:10.934Z,1.70
2018-03-27T03:43:37.054Z,1.60
2018-03-27T03:46:03.230Z,1.60
2018-03-27T03:48:29.350Z,1.50
2018-03-27T03:50:55.488Z,1.50
2018-03-27T03:53:21.607Z,1.50
2018-03-27T03:55:47.751Z,1.50
2018-03-27T03:58:13.938Z,1.50
2018-03-27T04:00:40.806Z,1.40
2018-03-27T04:03:07.661Z,1.40
2018-03-27T04:05:33.777Z,1.40
2018-03-27T04:07:59.899Z,1.40
2018-03-27T04:10:26.032Z,1.50
2018-03-27T04:12:52.220Z,1.50
2018-03-27T04:15:27.347Z,1.50
2018-03-27T04:17:53.475Z,1.50
2018-03-27T04:20:19.656Z,1.40
2018-03-27T04:22:46.517Z,1.40
2018-03-27T04:25:12.666Z,1.40
2018-03-27T04:27:38.891Z,1.50
2018-03-27T04:30:05.074Z,1.40
2018-03-27T04:32:31.239Z,1.40
2018-03-27T04:34:57.490Z,1.30
2018-03-27T04:37:24.413Z,1.30
2018-03-27T04:39:50.547Z,1.30
2018-03-27T04:42:16.774Z,1.40
2018-03-27T04:44:43.201Z,1.40
2018-03-27T04:47:09.290Z,1.40
2018-03-27T04:49:35.504Z,1.40
2018-03-27T04:52:01.630Z,1.40
2018-03-27T04:54:27.842Z,1.30
2018-03-27T04:56:54.721Z,1.40
2018-03-27T04:59:20.934Z,1.40
2018-03-27T05:01:47.114Z,1.40
2018-03-27T05:04:13.253Z,1.40
2018-03-27T05:06:39.372Z,1.30
2018-03-27T05:09:06.668Z,1.20
2018-03-27T05:11:32.842Z,1.20
2018-03-27T05:13:58.991Z,1.20
2018-03-27T05:16:25.962Z,1.20
2018-03-27T05:18:52.842Z,1.10
2018-03-27T05:21:19.085Z,1.10
2018-03-27T05:23:45.242Z,1.10
2018-03-27T05:26:11.395Z,1.10
2018-03-27T05:28:37.510Z,1.10
2018-03-27T05:31:03.661Z,1.10
2018-03-27T05:33:29.834Z,1.00
2018-03-27T05:35:55.921Z,1.00
2018-03-27T05:38:22.242Z,1.00
2018-03-27T05:40:48.435Z,1.10
2018-03-27T05:43:14.559Z,1.00
2018-03-27T05:45:40.788Z,1.00
2018-03-27T05:48:06.915Z,1.00
2018-03-27T05:50:33.019Z,1.10
2018-03-27T05:52:59.199Z,1.10
2018-03-27T05:55:25.386Z,1.10
2018-03-27T05:57:51.563Z,1.20
2018-03-27T06:00:17.819Z,1.20
2018-03-27T06:02:43.980Z,1.20
2018-03-27T06:05:13.620Z,1.30
2018-03-27T06:07:39.834Z,1.30
2018-03-27T06:10:05.998Z,1.40
2018-03-27T06:12:32.098Z,1.50
2018-03-27T06:14:58.273Z,1.50
2018-03-27T06:17:24.469Z,1.60
2018-03-27T06:19:51.686Z,1.70
2018-03-27T06:22:19.117Z,1.60
2018-03-27T06:24:45.428Z,1.70
2018-03-27T06:27:12.494Z,1.80
2018-03-27T06:29:38.795Z,1.80
2018-03-27T06:32:05.003Z,1.90
2018-03-27T06:34:31.443Z,1.90
2018-03-27T06:36:57.782Z,2.00
2018-03-27T06:39:24.045Z,2.10
2018-03-27T06:41:50.233Z,2.20
2018-03-27T06:44:16.470Z,2.20
2018-03-27T06:46:42.978Z,2.30
2018-03-27T06:49:09.600Z,2.40
2018-03-27T06:51:35.946Z,2.50
2018-03-27T06:54:02.316Z,2.60
2018-03-27T06:56:28.812Z,2.70
2018-03-27T06:58:55.038Z,2.80
2018-03-27T07:01:21.335Z,2.90
2018-03-27T07:03:47.610Z,2.90
2018-03-27T07:06:14.663Z,3.10
2018-03-27T07:08:40.908Z,3.10
2018-03-27T07:11:07.173Z,3.30
2018-03-27T07:13:34.240Z,3.40
2018-03-27T07:16:00.522Z,3.40
2018-03-27T07:18:26.868Z,3.50
2018-03-27T07:20:53.099Z,3.60
2018-03-27T07:23:19.353Z,3.80
2018-03-27T07:25:45.690Z,3.90
2018-03-27T07:28:11.840Z,4.00
2018-03-27T07:30:38.103Z,4.00
2018-03-27T07:33:04.219Z,4.10
2018-03-27T07:35:31.528Z,4.40
2018-03-27T07:37:57.712Z,4.30
2018-03-27T07:40:23.996Z,4.50
2018-03-27T07:42:50.304Z,4.60
2018-03-27T07:45:16.568Z,4.90
2018-03-27T07:47:42.735Z,5.20
2018-03-27T07:50:08.912Z,5.40
2018-03-27T07:52:35.113Z,5.60
2018-03-27T07:55:02.079Z,6.00
2018-03-27T07:57:28.291Z,6.00
2018-03-27T07:59:54.429Z,6.10
2018-03-27T08:02:20.718Z,6.30
2018-03-27T08:04:46.847Z,6.40
2018-03-27T08:07:13.707Z,6.60
2018-03-27T08:09:40.667Z,6.70
2018-03-27T08:12:07.586Z,6.90
2018-03-27T08:14:33.741Z,6.90
2018-03-27T08:16:59.999Z,7.00
2018-03-27T08:19:27.400Z,7.40
2018-03-27T08:21:53.662Z,7.30
2018-03-27T08:24:20.335Z,7.40
2018-03-27T08:26:46.499Z,7.40
2018-03-27T08:29:12.853Z,7.50
2018-03-27T08:31:39.106Z,7.50
2018-03-27T08:34:05.402Z,7.60
2018-03-27T08:36:31.705Z,7.70
2018-03-27T08:38:57.902Z,7.60
2018-03-27T08:41:24.603Z,7.60
2018-03-27T08:43:50.860Z,7.60
2018-03-27T08:46:19.852Z,7.60
2018-03-27T08:48:46.400Z,7.70
2018-03-27T08:51:12.590Z,7.90
2018-03-27T08:53:38.716Z,8.00
2018-03-27T08:56:04.942Z,8.20
2018-03-27T08:58:31.296Z,8.30
2018-03-27T09:00:57.699Z,8.40
2018-03-27T09:03:24.177Z,8.70
2018-03-27T09:05:59.472Z,8.60
2018-03-27T09:08:26.421Z,8.60
2018-03-27T09:10:53.673Z,8.60
2018-03-27T09:13:20.006Z,8.70
2018-03-27T09:15:46.254Z,8.70
2018-03-27T09:18:13.681Z,8.70
2018-03-27T09:20:42.978Z,8.90
2018-03-27T09:23:09.707Z,9.10
2018-03-27T09:25:37.246Z,9.30
2018-03-27T09:28:03.453Z,9.40
2018-03-27T09:30:31.639Z,9.40
2018-03-27T09:32:57.796Z,9.60
2018-03-27T09:35:23.960Z,9.90
2018-03-27T09:37:51.044Z,10.30
2018-03-27T09:40:17.358Z,10.20
2018-03-27T09:42:43.586Z,10.50
2018-03-27T09:45:09.802Z,10.50
2018-03-27T09:47:35.950Z,10.40
2018-03-27T09:50:02.174Z,10.20
2018-03-27T09:52:29.177Z,9.90
2018-03-27T09:54:55.984Z,9.90
2018-03-27T09:57:22.545Z,9.90
2018-03-27T09:59:49.394Z,10.00
2018-03-27T10:02:15.751Z,10.00
2018-03-27T10:04:42.044Z,10.10
2018-03-27T10:07:09.040Z,10.00
2018-03-27T10:09:36.075Z,10.10
2018-03-27T10:12:03.004Z,10.20
2018-03-27T10:14:29.114Z,10.20
2018-03-27T10:16:55.382Z,10.40
2018-03-27T10:19:22.767Z,10.50
2018-03-27T10:21:49.015Z,10.50
2018-03-27T10:24:15.308Z,10.50
2018-03-27T10:26:41.738Z,10.70
2018-03-27T10:29:07.960Z,10.80
2018-03-27T10:31:34.150Z,10.80
2018-03-27T10:34:00.415Z,10.90
2018-03-27T10:36:26.680Z,10.80
2018-03-27T10:38:52.838Z,10.90
2018-03-27T10:41:20.036Z,10.90
2018-03-27T10:43:46.146Z,10.80
2018-03-27T10:46:12.551Z,10.60
2018-03-27T10:48:38.645Z,10.60
2018-03-27T10:51:04.917Z,10.80
2018-03-27T10:53:31.079Z,11.00
2018-03-27T10:55:57.853Z,11.20
2018-03-27T10:58:24.075Z,11.10
2018-03-27T11:00:50.306Z,11.40
2018-03-27T11:03:17.232Z,11.30
2018-03-27T11:05:43.365Z,11.00
2018-03-27T11:08:10.314Z,11.20
2018-03-27T11:10:36.418Z,11.20
2018-03-27T11:13:02.772Z,11.30
2018-03-27T11:15:29.728Z,11.80
2018-03-27T11:17:56.758Z,11.70
2018-03-27T11:20:23.055Z,11.70
2018-03-27T11:22:49.685Z,11.70
2018-03-27T11:25:18.435Z,12.00
2018-03-27T11:27:44.744Z,12.40
2018-03-27T11:30:10.880Z,12.30
2018-03-27T11:32:37.821Z,12.20
2018-03-27T11:35:04.833Z,12.10
2018-03-27T11:37:30.944Z,12.10
2018-03-27T11:39:57.130Z,12.10
2018-03-27T11:42:23.297Z,11.90
2018-03-27T11:44:50.199Z,12.30
2018-03-27T11:47:16.427Z,12.30
2018-03-27T11:49:43.207Z,12.40
2018-03-27T11:52:09.525Z,12.50
2018-03-27T11:54:35.797Z,12.70
2018-03-27T11:57:01.920Z,12.90
2018-03-27T11:59:28.007Z,12.90
2018-03-27T12:01:55.267Z,12.90
2018-03-27T12:04:21.455Z,12.80
2018-03-27T12:06:47.582Z,12.90
2018-03-27T12:09:13.975Z,13.00
2018-03-27T12:11:40.272Z,13.00
2018-03-27T12:14:06.513Z,12.80
2018-03-27T12:16:32.657Z,12.90
2018-03-27T12:18:58.791Z,13.00
2018-03-27T12:21:24.910Z,13.10
2018-03-27T12:23:51.735Z,12.90
2018-03-27T12:26:17.831Z,12.90
2018-03-27T12:28:43.952Z,13.00
2018-03-27T12:31:10.048Z,13.10
2018-03-27T12:33:36.245Z,13.10
2018-03-27T12:36:02.403Z,13.20
2018-03-27T12:38:28.793Z,13.10
2018-03-27T12:40:54.957Z,12.90
2018-03-27T12:43:21.166Z,12.70
2018-03-27T12:45:48.124Z,12.40
2018-03-27T12:48:14.293Z,12.40
2018-03-27T12:50:40.527Z,12.20
2018-03-27T12:53:08.870Z,12.20
2018-03-27T12:55:35.113Z,12.10
2018-03-27T12:58:01.271Z,11.90
2018-03-27T13:00:28.213Z,11.80
2018-03-27T13:02:54.764Z,11.70
2018-03-27T13:05:21.166Z,11.60
2018-03-27T13:07:47.384Z,11.50
2018-03-27T13:10:13.569Z,11.40
2018-03-27T13:12:39.793Z,11.20
2018-03-27T13:15:08.107Z,11.10
2018-03-27T13:17:34.388Z,11.10
2018-03-27T13:20:01.116Z,11.10
2018-03-27T13:22:27.406Z,11.00
2018-03-27T13:24:54.044Z,11.10
2018-03-27T13:27:20.198Z,11.10
2018-03-27T13:29:46.996Z,11.10
2018-03-27T13:32:13.979Z,10.90
2018-03-27T13:34:40.117Z,10.90
2018-03-27T13:37:07.576Z,10.80
2018-03-27T13:39:33.798Z,10.70
2018-03-27T13:41:59.950Z,10.70
2018-03-27T13:44:29.607Z,10.60
2018-03-27T13:46:55.946Z,10.60
2018-03-27T13:49:22.288Z,10.70
2018-03-27T13:51:48.559Z,10.80
2018-03-27T13:54:14.691Z,10.90
2018-03-27T13:56:40.922Z,11.00
2018-03-27T13:59:07.067Z,11.20
2018-03-27T14:01:33.343Z,11.20
2018-03-27T14:03:59.522Z,11.20
2018-03-27T14:06:26.382Z,11.30
2018-03-27T14:08:52.544Z,11.30
2018-03-27T14:11:19.131Z,11.50
2018-03-27T14:13:45.388Z,11.40
2018-03-27T14:16:11.585Z,11.30
2018-03-27T14:18:38.006Z,11.10
2018-03-27T14:21:05.252Z,11.00
2018-03-27T14:23:31.495Z,10.80
2018-03-27T14:25:57.842Z,10.60
2018-03-27T14:28:25.059Z,10.40
2018-03-27T14:30:51.320Z,10.40
2018-03-27T14:33:18.462Z,10.50
2018-03-27T14:35:44.747Z,10.50
2018-03-27T14:38:11.024Z,10.30
2018-03-27T14:40:37.236Z,10.20
2018-03-27T14:43:03.581Z,10.10
2018-03-27T14:45:30.598Z,9.90
2018-03-27T14:47:57.253Z,9.80
2018-03-27T14:50:24.888Z,9.70
2018-03-27T14:52:51.144Z,9.70
2018-03-27T14:55:17.689Z,9.70
2018-03-27T14:57:47.161Z,9.60
2018-03-27T15:00:13.495Z,9.60
2018-03-27T15:02:39.640Z,9.60
2018-03-27T15:05:05.942Z,9.60
2018-03-27T15:07:32.075Z,9.60
2018-03-27T15:09:59.023Z,9.50
2018-03-27T15:12:25.119Z,9.50
2018-03-27T15:14:51.324Z,9.60
2018-03-27T15:17:17.484Z,9.70
2018-03-27T15:19:43.687Z,9.70
2018-03-27T15:22:10.190Z,9.50
2018-03-27T15:24:36.390Z,9.40
2018-03-27T15:27:02.631Z,9.30
2018-03-27T15:29:28.845Z,9.30
2018-03-27T15:31:56.465Z,9.20
2018-03-27T15:34:22.611Z,9.20
2018-03-27T15:36:48.817Z,9.10
2018-03-27T15:39:14.912Z,9.00
2018-03-27T15:41:41.084Z,9.10
2018-03-27T15:44:07.463Z,9.00
2018-03-27T15:46:34.730Z,9.00
2018-03-27T15:49:00.997Z,8.80
2018-03-27T15:51:27.985Z,8.80
2018-03-27T15:53:54.256Z,8.80
2018-03-27T15:56:20.745Z,8.80
2018-03-27T15:58:47.681Z,8.70
2018-03-27T16:01:15.073Z,8.70
2018-03-27T16:03:43.199Z,8.60
2018-03-27T16:06:10.272Z,8.60
2018-03-27T16:08:38.785Z,8.50
2018-03-27T16:11:06.517Z,8.50
2018-03-27T16:13:32.795Z,8.50
2018-03-27T16:15:58.929Z,8.40
2018-03-27T16:18:25.072Z,8.40
2018-03-27T16:20:51.257Z,8.30
2018-03-27T16:23:18.123Z,8.10
2018-03-27T16:25:45.055Z,8.10
2018-03-27T16:28:11.163Z,8.00
2018-03-27T16:30:37.284Z,7.90
2018-03-27T16:33:03.443Z,7.80
2018-03-27T16:35:29.586Z,7.60
2018-03-27T16:37:55.736Z,7.50
2018-03-27T16:40:21.954Z,7.40
2018-03-27T16:42:48.094Z,7.30
2018-03-27T16:45:14.232Z,7.20
2018-03-27T16:47:40.363Z,7.20
2018-03-27T16:50:06.550Z,7.20
2018-03-27T16:52:36.116Z,7.10
2018-03-27T16:55:02.301Z,7.10
2018-03-27T16:57:28.399Z,7.10
2018-03-27T16:59:55.237Z,7.10
2018-03-27T17:02:21.834Z,7.10
2018-03-27T17:04:48.056Z,7.10
2018-03-27T17:07:14.210Z,7.20
2018-03-27T17:09:44.997Z,7.20
2018-03-27T17:12:11.898Z,7.30
2018-03-27T17:14:38.025Z,7.20
2018-03-27T17:17:13.876Z,7.30
2018-03-27T17:19:40.102Z,7.30
2018-03-27T17:22:15.364Z,7.20
2018-03-27T17:24:44.890Z,7.20
2018-03-27T17:27:11.201Z,7.20
2018-03-27T17:29:45.895Z,7.20
2018-03-27T17:32:12.198Z,7.20
2018-03-27T17:34:38.638Z,7.20
2018-03-27T17:37:04.873Z,7.20
2018-03-27T17:39:39.633Z,7.20
2018-03-27T17:42:07.582Z,7.10
2018-03-27T17:44:33.879Z,7.10
2018-03-27T17:47:00.084Z,7.10
2018-03-27T17:49:26.543Z,7.10
2018-03-27T17:51:52.752Z,7.10
2018-03-27T17:54:19.083Z,7.10
2018-03-27T17:56:45.390Z,7.10
2018-03-27T17:59:11.693Z,7.10
2018-03-27T18:01:37.914Z,7.10
2018-03-27T18:04:04.666Z,7.10
2018-03-27T18:06:32.386Z,7.00
2018-03-27T18:08:58.824Z,6.90
2018-03-27T18:11:26.491Z,6.90
2018-03-27T18:13:52.863Z,6.90
2018-03-27T18:16:19.107Z,6.90
2018-03-27T18:18:45.487Z,6.90
2018-03-27T18:21:12.906Z,6.90
2018-03-27T18:23:40.068Z,6.90
2018-03-27T18:26:06.364Z,6.90
2018-03-27T18:28:33.431Z,6.90
2018-03-27T18:30:59.915Z,6.80
2018-03-27T18:33:26.988Z,6.90
2018-03-27T18:35:53.367Z,6.80
2018-03-27T18:38:19.608Z,6.90
2018-03-27T18:40:45.914Z,6.80
2018-03-27T18:43:13.281Z,6.90
2018-03-27T18:45:42.640Z,6.80
2018-03-27T18:48:12.447Z,6.80
2018-03-27T18:50:38.887Z,6.80
2018-03-27T18:53:07.227Z,6.80
2018-03-27T18:55:33.764Z,6.80
2018-03-27T18:58:00.512Z,6.70
2018-03-27T19:00:28.047Z,6.80
2018-03-27T19:02:54.405Z,6.80
2018-03-27T19:05:20.713Z,6.70
2018-03-27T19:07:47.572Z,6.70
2018-03-27T19:10:14.736Z,6.70
2018-03-27T19:12:43.331Z,6.70
2018-03-27T19:15:10.240Z,6.70
2018-03-27T19:17:36.630Z,6.70
2018-03-27T19:20:04.480Z,6.70
2018-03-27T19:22:30.724Z,6.70
2018-03-27T19:24:56.906Z,6.70
2018-03-27T19:27:23.155Z,6.80
2018-03-27T19:29:49.269Z,6.70
2018-03-27T19:32:16.479Z,6.80
2018-03-27T19:34:43.621Z,6.80
2018-03-27T19:37:15.368Z,6.80
2018-03-27T19:39:42.701Z,6.80
2018-03-27T21:40:02.607Z,6.70
2018-03-27T21:42:28.791Z,6.70
2018-03-27T21:44:55.015Z,6.70
2018-03-27T21:47:21.956Z,6.60
2018-03-27T21:49:48.352Z,6.60
2018-03-27T21:52:14.463Z,6.60
2018-03-27T21:54:40.934Z,6.60
2018-03-27T21:57:07.152Z,6.60
2018-03-27T21:59:33.424Z,6.50
2018-03-27T22:01:59.700Z,6.50
2018-03-27T22:04:25.912Z,6.60
2018-03-27T22:06:52.098Z,6.60
2018-03-27T22:09:18.380Z,6.60
2018-03-27T22:11:46.396Z,6.50
2018-03-27T22:14:12.524Z,6.50
2018-03-27T22:16:38.740Z,6.60
2018-03-27T22:19:04.978Z,6.50
2018-03-27T22:21:31.186Z,6.50
2018-03-27T22:23:58.143Z,6.50
2018-03-27T22:26:24.263Z,6.50
2018-03-27T22:28:50.405Z,6.50
2018-03-27T22:31:16.580Z,6.50
2018-03-27T22:33:43.512Z,6.50
2018-03-27T22:36:10.659Z,6.50
2018-03-27T22:38:36.892Z,6.50
2018-03-27T22:41:05.596Z,6.50
2018-03-27T22:43:31.944Z,6.50
2018-03-27T22:45:58.134Z,6.50
2018-03-27T22:48:24.259Z,6.50
2018-03-27T22:50:51.184Z,6.50
2018-03-27T22:53:17.344Z,6.50
2018-03-27T22:55:45.709Z,6.50
2018-03-27T22:58:13.845Z,6.60
2018-03-27T23:00:40.205Z,6.60
2018-03-27T23:03:06.302Z,6.60
2018-03-27T23:05:33.211Z,6.60
2018-03-27T23:07:59.378Z,6.60
2018-03-27T23:10:26.309Z,6.70
2018-03-27T23:12:52.743Z,6.70
2018-03-27T23:15:18.859Z,6.70
2018-03-27T23:17:45.084Z,6.80
2018-03-27T23:20:14.315Z,6.80
2018-03-27T23:22:40.537Z,6.80
2018-03-27T23:25:07.483Z,6.70
2018-03-27T23:27:33.700Z,6.70
2018-03-27T23:29:59.854Z,6.70
2018-03-27T23:32:25.969Z,6.80
2018-03-27T23:34:52.235Z,6.80
2018-03-27T23:37:18.411Z,6.80
2018-03-27T23:39:44.539Z,6.80
2018-03-27T23:42:10.682Z,6.80
2018-03-27T23:44:37.628Z,6.80
2018-03-27T23:47:08.721Z,6.80
2018-03-27T23:49:34.835Z,6.80
2018-03-27T23:52:00.962Z,6.80
2018-03-27T23:54:27.816Z,6.90
2018-03-27T23:56:55.447Z,6.90
2018-03-27T23:59:21.714Z,7.00
